Terminal Aerodrome Forecast
Issued by NWS Caribou, ME

Home | Current Version | Previous Version | Text Only | Print | Product List | Glossary On
Versions: 1 2 3 4 5 6 7 8 9 10 11 12 13 14 15 16 17 18 19 20 21
997
FTUS41 KCAR 091741
TAFBGR
TAF
KBGR 091741Z 0918/1018 01008KT 3SM -SN SCT015 OVC025
     FM092000 07007KT P6SM -SN OVC015
     FM092300 14006KT P6SM OVC025
     FM100200 VRB03KT P6SM SCT025 OVC100=

USA.gov is the U.S. government's official web portal to all federal, state and local government web resources and services.